Time;durP1;ratioP1;P1;durP2;ratioP2;P2;SDS_P1;SDS_P2;PMS_P1;PMS_P2;Temp;Humidity;BMP_temperature;BMP_pressure;BME280_temperature;BME280_humidity;BME280_pressure;Samples;Min_cycle;Max_cycle;Signal;HPM_P1;HPM_P2
2024/03/17 00:02:23;;;;;;;6.83;3.10;;;;;;;5.46;92.48;101600.88;5046291;28;20236;-74
2024/03/17 00:04:51;;;;;;;6.23;2.60;;;;;;;5.41;92.43;101608.03;5045161;28;20511;-72
2024/03/17 00:07:17;;;;;;;6.47;2.17;;;;;;;5.36;92.25;101609.09;5048011;28;20316;-71
2024/03/17 00:09:44;;;;;;;4.43;2.33;;;;;;;5.21;91.18;101612.97;5046371;28;20209;-71
2024/03/17 00:12:09;;;;;;;6.77;2.00;;;;;;;5.12;91.64;101618.50;5048406;28;20328;-72
2024/03/17 00:14:36;;;;;;;5.10;1.80;;;;;;;5.03;91.60;101618.72;5045205;28;20201;-72
2024/03/17 00:17:04;;;;;;;5.87;2.10;;;;;;;4.94;91.53;101621.59;5045402;28;20213;-73
2024/03/17 00:19:29;;;;;;;3.50;1.70;;;;;;;4.87;91.69;101624.38;5036649;28;20700;-72
2024/03/17 00:21:57;;;;;;;6.13;1.90;;;;;;;4.84;92.29;101620.94;5046194;28;20448;-72
2024/03/17 00:24:24;;;;;;;5.40;1.80;;;;;;;4.81;92.57;101614.00;5042055;28;20233;-71
2024/03/17 00:26:50;;;;;;;9.50;2.80;;;;;;;4.80;92.98;101614.91;5043511;28;20237;-71
2024/03/17 00:29:16;;;;;;;5.37;2.23;;;;;;;4.78;93.33;101616.72;5042693;28;20638;-71
2024/03/17 00:31:42;;;;;;;7.57;2.63;;;;;;;4.76;93.67;101618.50;5038821;28;20304;-71
2024/03/17 00:34:09;;;;;;;4.70;2.30;;;;;;;4.75;93.60;101619.41;5093057;22;20231;-72
2024/03/17 00:36:36;;;;;;;7.47;2.60;;;;;;;4.73;93.94;101617.72;5077272;28;20206;-71
2024/03/17 00:39:03;;;;;;;5.30;2.87;;;;;;;4.72;94.17;101626.53;5076455;28;20204;-70
2024/03/17 00:41:30;;;;;;;7.53;3.13;;;;;;;4.70;94.14;101626.56;5073741;28;20746;-72
2024/03/17 00:43:55;;;;;;;6.53;2.90;;;;;;;4.68;94.38;101627.50;5068357;28;20311;-73
2024/03/17 00:46:24;;;;;;;3.83;2.63;;;;;;;4.66;95.07;101621.41;5060324;28;20845;-71
2024/03/17 00:48:50;;;;;;;5.43;3.20;;;;;;;4.65;95.00;101627.59;5057070;28;20220;-72
2024/03/17 00:51:17;;;;;;;4.30;2.10;;;;;;;4.61;95.12;101629.44;5060560;28;20205;-72
2024/03/17 00:53:42;;;;;;;3.40;2.13;;;;;;;4.53;93.71;101619.03;5063531;28;20342;-71
2024/03/17 00:56:10;;;;;;;3.80;1.83;;;;;;;4.45;93.07;101617.50;5058579;28;20204;-71
2024/03/17 00:58:36;;;;;;;4.17;2.27;;;;;;;4.34;92.53;101614.22;5059878;28;20450;-72
2024/03/17 01:01:03;;;;;;;3.20;2.27;;;;;;;4.26;92.59;101618.81;5058411;28;20196;-71
2024/03/17 01:03:29;;;;;;;3.57;2.40;;;;;;;4.21;93.67;101621.53;5059970;28;20692;-72
2024/03/17 01:05:55;;;;;;;4.90;2.60;;;;;;;4.17;94.70;101618.09;5062642;28;20327;-71
2024/03/17 01:08:22;;;;;;;3.30;2.30;;;;;;;4.15;95.16;101619.88;5061277;28;20205;-71
2024/03/17 01:10:49;;;;;;;5.77;2.90;;;;;;;4.14;95.09;101612.88;5064031;28;20262;-72
2024/03/17 01:13:18;;;;;;;4.40;2.30;;;;;;;4.12;96.09;101619.94;5064700;28;20442;-71
2024/03/17 01:15:44;;;;;;;5.17;2.50;;;;;;;4.12;96.23;101612.03;5060024;28;20741;-71
2024/03/17 01:18:11;;;;;;;7.43;3.33;;;;;;;4.12;96.50;101617.31;5064392;28;20299;-71
2024/03/17 01:20:37;;;;;;;5.87;2.80;;;;;;;4.12;97.11;101611.19;5057635;28;20215;-71
2024/03/17 01:23:04;;;;;;;5.00;2.70;;;;;;;4.11;97.25;101617.38;5064409;28;20229;-71
2024/03/17 01:25:30;;;;;;;7.43;2.83;;;;;;;4.08;97.16;101610.41;5054087;28;20196;-71
2024/03/17 01:27:57;;;;;;;6.07;2.60;;;;;;;4.04;97.47;101605.22;5061223;28;20235;-71
2024/03/17 01:30:24;;;;;;;4.30;2.70;;;;;;;4.02;97.73;101607.00;5058343;28;20215;-69
2024/03/17 01:32:52;;;;;;;6.23;3.07;;;;;;;4.00;97.88;101603.53;5056587;28;20229;-71
2024/03/17 01:35:18;;;;;;;4.20;2.57;;;;;;;3.98;98.68;101606.19;5059694;28;20590;-71
2024/03/17 01:37:44;;;;;;;5.17;2.90;;;;;;;3.98;98.75;101600.94;5056857;28;20850;-72
2024/03/17 01:40:11;;;;;;;4.57;2.90;;;;;;;3.96;98.75;101602.72;5057530;28;20837;-72
2024/03/17 01:42:39;;;;;;;6.10;2.73;;;;;;;3.94;98.57;101603.69;5056872;28;20239;-69
2024/03/17 01:45:24;;;;;;;5.77;2.93;;;;;;;3.92;98.85;101603.72;5058492;28;20202;-70
2024/03/17 01:47:52;;;;;;;4.67;3.03;;;;;;;3.89;98.72;101600.25;5057278;28;20222;-68
2024/03/17 01:50:24;;;;;;;5.57;2.67;;;;;;;3.84;98.62;101603.84;5058256;28;20201;-71
2024/03/17 01:52:52;;;;;;;6.90;3.00;;;;;;;3.81;99.34;101592.50;5055655;28;20339;-71
2024/03/17 01:55:18;;;;;;;7.47;3.00;;;;;;;3.80;99.50;101601.31;5057838;28;20431;-69
2024/03/17 01:57:45;;;;;;;4.27;2.73;;;;;;;3.77;100.00;101604.00;5058595;28;20204;-71
2024/03/17 02:00:12;;;;;;;7.90;2.97;;;;;;;3.77;100.00;101606.63;5052136;28;20219;-71
2024/03/17 02:02:38;;;;;;;3.60;2.80;;;;;;;3.75;100.00;101590.88;5057219;28;20611;-70
2024/03/17 02:05:06;;;;;;;14.00;6.00;;;;;;;3.76;100.00;101591.75;5057496;28;20227;-71
2024/03/17 02:07:33;;;;;;;6.30;2.93;;;;;;;3.74;100.00;101596.19;5056141;28;20871;-70
2024/03/17 02:09:59;;;;;;;6.37;3.10;;;;;;;3.73;100.00;101594.44;5061233;28;20304;-71
2024/03/17 02:12:26;;;;;;;6.77;3.23;;;;;;;3.72;100.00;101595.34;5059099;28;20670;-71
2024/03/17 02:14:52;;;;;;;6.53;3.07;;;;;;;3.71;100.00;101602.38;5064976;28;20207;-71
2024/03/17 02:17:19;;;;;;;5.93;3.00;;;;;;;3.70;100.00;101595.38;5063117;28;20225;-68
2024/03/17 02:19:44;;;;;;;7.13;3.17;;;;;;;3.69;100.00;101593.63;5055701;28;20802;-71
2024/03/17 02:22:14;;;;;;;4.87;2.97;;;;;;;3.68;100.00;101593.66;5061284;28;20210;-71
2024/03/17 02:24:40;;;;;;;5.40;3.03;;;;;;;3.66;100.00;101593.69;5063016;28;20196;-71
2024/03/17 02:27:07;;;;;;;6.80;2.50;;;;;;;3.62;100.00;101592.00;5058456;28;20201;-72
2024/03/17 02:29:33;;;;;;;8.70;4.47;;;;;;;3.57;100.00;101598.28;5060511;28;20215;-69
2024/03/17 02:31:59;;;;;;;5.73;3.23;;;;;;;3.51;100.00;101593.13;5064484;28;20205;-71
2024/03/17 02:34:25;;;;;;;7.07;2.63;;;;;;;3.46;100.00;101601.09;5056644;28;21052;-72
2024/03/17 02:36:52;;;;;;;4.83;3.50;;;;;;;3.42;100.00;101588.88;5054840;28;20228;-70
2024/03/17 02:39:33;;;;;;;5.67;2.60;;;;;;;3.39;100.00;101595.09;5054986;28;20288;-71
2024/03/17 02:42:01;;;;;;;4.30;2.93;;;;;;;3.37;100.00;101590.75;5055237;28;20213;-71
2024/03/17 02:44:27;;;;;;;8.30;2.97;;;;;;;3.35;100.00;101593.41;5060064;28;20252;-71
2024/03/17 02:46:54;;;;;;;6.13;3.53;;;;;;;3.32;100.00;101585.56;5063937;28;20563;-71
2024/03/17 02:49:22;;;;;;;11.00;2.83;;;;;;;3.31;100.00;101589.09;5057820;28;20220;-70
2024/03/17 02:51:48;;;;;;;3.23;2.33;;;;;;;3.26;100.00;101585.66;5057225;28;20311;-70
2024/03/17 02:54:15;;;;;;;3.33;2.10;;;;;;;3.18;100.00;101584.09;5055894;28;20324;-70
2024/03/17 02:56:43;;;;;;;6.60;2.87;;;;;;;3.11;99.66;101585.94;5052338;28;20623;-70
2024/03/17 02:59:10;;;;;;;4.13;2.70;;;;;;;3.07;100.00;101582.50;5057798;28;20206;-70
2024/03/17 03:01:36;;;;;;;7.20;2.77;;;;;;;3.03;100.00;101585.25;5061343;28;20302;-70
2024/03/17 03:04:03;;;;;;;4.10;2.60;;;;;;;2.98;100.00;101584.44;5065181;28;20300;-69
2024/03/17 03:06:30;;;;;;;6.33;3.17;;;;;;;2.95;100.00;101593.25;5060557;28;20293;-70
2024/03/17 03:08:56;;;;;;;5.60;3.47;;;;;;;2.96;100.00;101596.75;5063383;28;20205;-70
2024/03/17 03:11:23;;;;;;;5.10;2.90;;;;;;;2.96;100.00;101591.50;5055538;28;20296;-71
2024/03/17 03:13:51;;;;;;;4.73;2.57;;;;;;;2.95;100.00;101590.63;5064541;28;20317;-70
2024/03/17 03:16:18;;;;;;;5.90;2.97;;;;;;;2.93;100.00;101583.66;5065524;28;20205;-70
2024/03/17 03:18:45;;;;;;;9.40;3.40;;;;;;;2.93;100.00;101581.88;5067252;28;20232;-69
2024/03/17 03:21:12;;;;;;;9.70;3.37;;;;;;;2.92;100.00;101587.16;5067542;28;20215;-69
2024/03/17 03:23:38;;;;;;;6.10;3.27;;;;;;;2.91;100.00;101582.78;5066376;28;20719;-70
2024/03/17 03:26:04;;;;;;;6.67;3.40;;;;;;;2.90;100.00;101578.44;5064050;28;20507;-69
2024/03/17 03:28:33;;;;;;;4.90;3.03;;;;;;;2.88;100.00;101581.06;5066541;28;20299;-70
2024/03/17 03:31:02;;;;;;;5.47;3.17;;;;;;;2.89;100.00;101588.09;5061973;28;20243;-70
2024/03/17 03:33:28;;;;;;;5.97;3.40;;;;;;;2.88;100.00;101586.34;5064873;28;20233;-69
2024/03/17 03:35:55;;;;;;;6.83;3.37;;;;;;;2.86;100.00;101582.03;5061041;28;20236;-68
2024/03/17 03:38:22;;;;;;;8.20;3.03;;;;;;;2.85;100.00;101594.31;5064057;28;20317;-70
2024/03/17 03:40:49;;;;;;;5.60;2.53;;;;;;;2.84;100.00;101597.84;5062478;28;20205;-70
2024/03/17 03:43:16;;;;;;;7.27;3.27;;;;;;;2.84;100.00;101599.59;5064822;28;20303;-70
2024/03/17 03:45:43;;;;;;;5.80;2.77;;;;;;;2.81;100.00;101597.00;5067461;28;20405;-69
2024/03/17 03:48:10;;;;;;;8.53;3.23;;;;;;;2.79;100.00;101599.66;5061725;28;20201;-70
2024/03/17 03:50:38;;;;;;;8.27;3.07;;;;;;;2.76;100.00;101597.94;5065198;28;20219;-70
2024/03/17 03:53:06;;;;;;;7.40;2.90;;;;;;;2.76;100.00;101600.56;5065727;28;20227;-69
2024/03/17 03:55:32;;;;;;;6.53;3.20;;;;;;;2.76;100.00;101600.56;5062919;28;20584;-70
2024/03/17 03:57:59;;;;;;;4.40;2.77;;;;;;;2.76;100.00;101599.72;5065866;28;20327;-70
2024/03/17 04:00:29;;;;;;;6.50;3.00;;;;;;;2.78;100.00;101605.81;5064369;28;20387;-70
2024/03/17 04:02:56;;;;;;;7.97;3.17;;;;;;;2.78;100.00;101601.44;5065471;28;20224;-70
2024/03/17 04:05:24;;;;;;;6.30;3.00;;;;;;;2.79;100.00;101599.66;5060316;28;20274;-70
2024/03/17 04:07:51;;;;;;;5.13;3.07;;;;;;;2.79;100.00;101597.03;5066387;28;20224;-70
2024/03/17 04:10:20;;;;;;;10.17;3.03;;;;;;;2.78;100.00;101598.78;5065098;28;20205;-70
2024/03/17 04:12:49;;;;;;;6.50;3.10;;;;;;;2.78;100.00;101601.44;5063667;28;20228;-69
2024/03/17 04:15:15;;;;;;;7.97;2.80;;;;;;;2.78;100.00;101596.16;5062375;28;20371;-70
2024/03/17 04:17:43;;;;;;;8.27;3.50;;;;;;;2.79;100.00;101597.03;5063824;28;20220;-72
2024/03/17 04:20:13;;;;;;;8.23;2.93;;;;;;;2.79;100.00;101594.41;5062904;28;20225;-71
2024/03/17 04:22:42;;;;;;;6.90;3.27;;;;;;;2.78;100.00;101595.28;5065631;28;20756;-71
2024/03/17 04:25:09;;;;;;;7.20;3.20;;;;;;;2.78;100.00;101597.94;5062711;28;20614;-71
2024/03/17 04:27:36;;;;;;;5.87;2.83;;;;;;;2.75;100.00;101596.22;5064972;28;20232;-72
2024/03/17 04:30:05;;;;;;;6.67;3.33;;;;;;;2.75;100.00;101590.06;5065502;28;20211;-71
2024/03/17 04:32:32;;;;;;;9.77;3.13;;;;;;;2.74;100.00;101585.72;5063073;28;20235;-69
2024/03/17 04:34:59;;;;;;;9.60;3.23;;;;;;;2.73;100.00;101592.72;5066269;28;20280;-72
2024/03/17 04:37:26;;;;;;;7.40;3.13;;;;;;;2.74;100.00;101593.59;5064698;28;20652;-72
2024/03/17 04:39:57;;;;;;;7.67;2.97;;;;;;;2.75;100.00;101601.47;5064701;28;20295;-71
2024/03/17 04:42:23;;;;;;;8.57;2.97;;;;;;;2.76;100.00;101603.22;5059130;28;20735;-71
2024/03/17 04:44:51;;;;;;;6.77;3.00;;;;;;;2.77;100.00;101597.06;5065281;28;20291;-72
2024/03/17 04:47:17;;;;;;;8.03;3.00;;;;;;;2.77;100.00;101597.06;5059802;28;20201;-71
2024/03/17 04:49:45;;;;;;;7.13;3.53;;;;;;;2.78;100.00;101603.19;5063130;28;20295;-72
2024/03/17 04:52:12;;;;;;;7.83;3.17;;;;;;;2.77;100.00;101604.94;5060569;28;20284;-72
2024/03/17 04:54:41;;;;;;;6.47;3.33;;;;;;;2.77;100.00;101599.69;5057266;28;20245;-72
2024/03/17 04:57:09;;;;;;;8.80;2.90;;;;;;;2.79;100.00;101602.28;5061637;28;20281;-72
2024/03/17 04:59:38;;;;;;;7.43;2.97;;;;;;;2.77;100.00;101602.31;5064523;28;20289;-72
2024/03/17 05:02:05;;;;;;;8.10;3.27;;;;;;;2.76;100.00;101603.22;5059542;28;20205;-72
2024/03/17 05:04:31;;;;;;;6.00;2.87;;;;;;;2.77;100.00;101609.34;5065733;28;20228;-72
2024/03/17 05:06:58;;;;;;;7.37;3.43;;;;;;;2.76;100.00;101618.13;5060831;28;20231;-72
2024/03/17 05:09:25;;;;;;;6.20;3.67;;;;;;;2.74;100.00;101607.63;5064955;28;20771;-72
2024/03/17 05:11:52;;;;;;;8.23;3.10;;;;;;;2.74;100.00;101614.63;5062927;28;20680;-70
2024/03/17 05:14:21;;;;;;;7.27;3.03;;;;;;;2.72;100.00;101614.66;5064517;28;20220;-72
2024/03/17 05:16:50;;;;;;;8.80;3.77;;;;;;;2.73;100.00;101623.44;5061991;28;20292;-71
2024/03/17 05:19:17;;;;;;;11.43;4.47;;;;;;;2.70;100.00;101626.09;5064542;28;20287;-72
2024/03/17 05:21:44;;;;;;;9.93;4.13;;;;;;;2.67;100.00;101631.44;5058078;28;20209;-71
2024/03/17 05:24:11;;;;;;;6.70;4.37;;;;;;;2.65;100.00;101626.19;5057542;28;20217;-72
2024/03/17 05:26:37;;;;;;;9.13;3.53;;;;;;;2.65;100.00;101628.81;5057534;28;20816;-72
2024/03/17 05:29:04;;;;;;;5.43;3.37;;;;;;;2.64;100.00;101629.72;5061730;28;20202;-72
2024/03/17 05:31:32;;;;;;;6.53;3.73;;;;;;;2.64;100.00;101637.59;5062881;28;20581;-71
2024/03/17 05:33:59;;;;;;;6.10;3.40;;;;;;;2.65;100.00;101646.38;5063170;28;20327;-71
2024/03/17 05:36:25;;;;;;;6.77;3.40;;;;;;;2.67;100.00;101647.22;5064837;28;20205;-70
2024/03/17 05:38:52;;;;;;;7.53;3.40;;;;;;;2.66;100.00;101637.59;5060778;28;20315;-71
2024/03/17 05:41:18;;;;;;;7.43;3.40;;;;;;;2.65;100.00;101649.88;5062894;28;21219;-72
2024/03/17 05:43:45;;;;;;;8.20;3.47;;;;;;;2.65;100.00;101649.88;5059591;28;20316;-72
2024/03/17 05:46:12;;;;;;;6.87;3.83;;;;;;;2.65;100.00;101649.88;5054617;28;20211;-72
2024/03/17 05:48:41;;;;;;;8.53;3.80;;;;;;;2.64;100.00;101652.50;5057129;28;20215;-71
2024/03/17 05:51:08;;;;;;;5.00;3.40;;;;;;;2.63;100.00;101656.91;5065781;28;20204;-72
2024/03/17 05:53:36;;;;;;;6.23;3.50;;;;;;;2.64;100.00;101660.41;5061035;28;20312;-71
2024/03/17 05:56:03;;;;;;;4.83;3.60;;;;;;;2.59;100.00;101657.84;5059099;28;20201;-71
2024/03/17 05:58:30;;;;;;;7.33;3.47;;;;;;;2.60;100.00;101667.47;5057982;28;20228;-71
2024/03/17 06:00:58;;;;;;;6.03;3.60;;;;;;;2.62;100.00;101672.69;5063348;28;20296;-72
2024/03/17 06:03:24;;;;;;;6.60;3.53;;;;;;;2.63;100.00;101663.91;5064683;28;20301;-72
2024/03/17 06:05:53;;;;;;;6.30;3.60;;;;;;;2.63;100.00;101671.81;5068887;28;20205;-72
2024/03/17 06:08:20;;;;;;;8.73;3.83;;;;;;;2.61;100.00;101668.34;5065725;28;20201;-71
2024/03/17 06:10:48;;;;;;;8.50;3.70;;;;;;;2.62;100.00;101673.56;5065703;28;20241;-69
2024/03/17 06:13:16;;;;;;;7.03;3.67;;;;;;;2.62;100.00;101668.31;5065622;28;20310;-72
2024/03/17 06:15:43;;;;;;;6.90;4.03;;;;;;;2.66;100.00;101675.28;5065896;28;20205;-72
2024/03/17 06:18:14;;;;;;;8.27;4.20;;;;;;;2.67;100.00;101670.88;5066670;28;20223;-72
2024/03/17 06:20:43;;;;;;;6.77;4.60;;;;;;;2.68;100.00;101664.72;5067270;28;20205;-71
2024/03/17 06:23:12;;;;;;;7.73;3.93;;;;;;;2.72;100.00;101669.91;5066317;28;20304;-71
2024/03/17 06:25:40;;;;;;;9.47;3.80;;;;;;;2.76;100.00;101661.09;5064972;28;20221;-71
2024/03/17 06:28:07;;;;;;;10.13;3.80;;;;;;;2.79;100.00;101665.44;5063784;28;20204;-72
2024/03/17 06:30:35;;;;;;;10.80;4.67;;;;;;;2.82;100.00;101665.38;5064436;28;20205;-72
2024/03/17 06:33:02;;;;;;;7.87;4.20;;;;;;;2.84;100.00;101663.59;5065276;28;20294;-72
2024/03/17 06:35:30;;;;;;;7.97;4.63;;;;;;;2.87;100.00;101652.13;5063517;28;20589;-71
2024/03/17 06:38:00;;;;;;;6.80;4.33;;;;;;;2.92;100.00;101655.56;5060973;28;20479;-71
2024/03/17 06:40:28;;;;;;;11.13;4.43;;;;;;;2.95;100.00;101655.53;5065045;28;20720;-72
2024/03/17 06:42:54;;;;;;;6.83;5.00;;;;;;;3.00;100.00;101648.44;5064443;28;20217;-72
2024/03/17 06:45:21;;;;;;;7.30;4.57;;;;;;;3.04;100.00;101658.91;5066775;28;20311;-72
2024/03/17 06:47:48;;;;;;;7.07;4.73;;;;;;;3.08;100.00;101664.97;5062803;28;20993;-70
2024/03/17 06:50:14;;;;;;;10.13;5.00;;;;;;;3.11;100.00;101657.88;5066101;28;20291;-72
2024/03/17 06:52:41;;;;;;;7.47;4.90;;;;;;;3.14;100.00;101660.47;5064947;28;20224;-70
2024/03/17 06:55:08;;;;;;;10.23;5.30;;;;;;;3.19;100.00;101656.91;5058855;28;20225;-71
2024/03/17 06:57:36;;;;;;;10.93;4.77;;;;;;;3.24;100.00;101650.66;5060397;28;20239;-71
2024/03/17 07:00:05;;;;;;;10.73;5.23;;;;;;;3.28;100.00;101648.84;5061816;28;20201;-70
2024/03/17 07:02:32;;;;;;;8.53;4.30;;;;;;;3.32;100.00;101640.88;5057909;28;20224;-72
2024/03/17 07:04:59;;;;;;;9.97;5.67;;;;;;;3.37;100.00;101641.66;5063046;28;20219;-71
2024/03/17 07:07:28;;;;;;;7.40;5.03;;;;;;;3.40;100.00;101641.56;5063177;28;20761;-70
2024/03/17 07:09:54;;;;;;;13.77;5.07;;;;;;;3.46;100.00;101644.09;5062930;28;20201;-72
2024/03/17 07:12:21;;;;;;;8.03;4.80;;;;;;;3.49;100.00;101638.78;5058521;28;20878;-71
2024/03/17 07:14:52;;;;;;;8.90;5.00;;;;;;;3.56;100.00;101641.31;5064019;28;20307;-72
2024/03/17 07:17:19;;;;;;;8.00;5.07;;;;;;;3.64;100.00;101634.13;5064433;28;20197;-72
2024/03/17 07:19:45;;;;;;;8.77;4.67;;;;;;;3.69;100.00;101634.91;5063655;28;20811;-71
2024/03/17 07:22:12;;;;;;;10.40;5.17;;;;;;;3.76;100.00;101636.53;5064409;28;20205;-72
2024/03/17 07:24:38;;;;;;;8.23;4.43;;;;;;;3.83;100.00;101632.88;5063337;28;20209;-71
2024/03/17 07:27:08;;;;;;;10.83;5.17;;;;;;;3.89;100.00;101643.31;5062144;28;20213;-70
2024/03/17 07:29:35;;;;;;;12.20;5.43;;;;;;;3.99;100.00;101636.06;5063441;28;20644;-72
2024/03/17 07:32:03;;;;;;;8.53;5.00;;;;;;;4.04;100.00;101637.72;5064493;28;20295;-69
2024/03/17 07:34:31;;;;;;;6.93;5.00;;;;;;;4.12;100.00;101640.19;5063372;28;20319;-72
2024/03/17 07:37:00;;;;;;;8.43;4.83;;;;;;;4.20;100.00;101643.53;5064486;28;20209;-71
2024/03/17 07:39:32;;;;;;;7.27;4.50;;;;;;;4.32;100.00;101640.63;5063172;28;20240;-71
2024/03/17 07:41:58;;;;;;;7.03;5.13;;;;;;;4.38;100.00;101653.69;5066137;28;20201;-71
2024/03/17 07:44:25;;;;;;;11.70;4.70;;;;;;;4.46;100.00;101651.75;5064273;28;20795;-72
2024/03/17 07:46:51;;;;;;;9.80;4.87;;;;;;;4.54;100.00;101648.94;5062808;28;20527;-72
2024/03/17 07:49:19;;;;;;;9.97;5.17;;;;;;;4.66;100.00;101643.34;5062012;28;20205;-72
2024/03/17 07:51:46;;;;;;;13.20;5.60;;;;;;;4.77;100.00;101651.91;5064167;28;20579;-71
2024/03/17 07:54:13;;;;;;;10.07;5.57;;;;;;;4.88;100.00;101641.97;5062609;28;20235;-72
2024/03/17 07:56:40;;;;;;;8.93;5.03;;;;;;;5.00;100.00;101632.03;5061060;28;20202;-72
2024/03/17 07:59:11;;;;;;;8.03;5.63;;;;;;;5.12;100.00;101637.00;5064264;28;20626;-72
2024/03/17 08:01:38;;;;;;;8.83;6.10;;;;;;;5.29;100.00;101650.63;5061869;28;20672;-72
2024/03/17 08:04:05;;;;;;;10.67;5.53;;;;;;;5.44;100.00;101650.22;5065902;28;20244;-72
2024/03/17 08:06:33;;;;;;;12.63;6.07;;;;;;;5.63;100.00;101650.59;5065161;28;20291;-71
2024/03/17 08:08:59;;;;;;;9.27;5.33;;;;;;;5.78;100.00;101651.97;5060106;28;20201;-72
2024/03/17 08:11:26;;;;;;;7.03;5.10;;;;;;;5.91;100.00;101653.41;5063429;28;20598;-72
2024/03/17 08:13:54;;;;;;;11.70;5.67;;;;;;;6.06;100.00;101650.31;5058525;28;20315;-71
2024/03/17 08:16:20;;;;;;;10.43;5.07;;;;;;;6.19;100.00;101657.00;5057194;28;20212;-72
2024/03/17 08:18:47;;;;;;;8.60;5.07;;;;;;;6.34;100.00;101652.16;5053213;28;20216;-72
2024/03/17 08:21:14;;;;;;;7.97;4.97;;;;;;;6.42;100.00;101647.50;5061377;28;20283;-72
2024/03/17 08:23:42;;;;;;;9.73;5.33;;;;;;;6.55;100.00;101654.16;5059246;28;20257;-72
2024/03/17 08:26:10;;;;;;;6.63;4.53;;;;;;;6.66;100.00;101652.03;5056283;28;20215;-71
2024/03/17 08:28:36;;;;;;;7.13;4.30;;;;;;;6.77;100.00;101644.63;5060394;28;20323;-72
2024/03/17 08:31:04;;;;;;;9.70;4.57;;;;;;;6.93;100.00;101632.63;5064295;28;20204;-72
2024/03/17 08:33:32;;;;;;;9.83;4.70;;;;;;;7.03;100.00;101633.19;5064901;28;20335;-73
2024/03/17 08:36:01;;;;;;;9.03;4.80;;;;;;;7.12;100.00;101630.25;5063482;28;20736;-73
2024/03/17 08:38:29;;;;;;;8.77;4.87;;;;;;;7.22;99.03;101629.00;5058572;28;20229;-72
2024/03/17 08:40:57;;;;;;;8.77;4.07;;;;;;;7.34;97.88;101624.22;5063192;28;20687;-71
2024/03/17 08:43:25;;;;;;;10.27;4.47;;;;;;;7.45;97.54;101628.22;5062687;28;20800;-72
2024/03/17 08:45:59;;;;;;;6.63;4.50;;;;;;;7.52;96.55;101620.94;5062521;28;20211;-72
2024/03/17 08:48:26;;;;;;;10.50;4.40;;;;;;;7.64;95.71;101616.06;5059317;28;20294;-72
2024/03/17 08:50:53;;;;;;;13.13;4.53;;;;;;;7.76;93.02;101609.44;5062905;28;20205;-72
2024/03/17 08:53:20;;;;;;;8.93;4.60;;;;;;;7.83;91.05;101612.72;5059870;28;20282;-72
2024/03/17 08:55:47;;;;;;;11.07;4.10;;;;;;;7.92;89.11;101609.72;5059206;28;21192;-72
2024/03/17 08:58:15;;;;;;;9.03;3.60;;;;;;;8.01;86.90;101604.09;5061146;28;20207;-73
2024/03/17 09:00:42;;;;;;;9.10;3.87;;;;;;;8.10;86.94;101608.16;5062266;28;20201;-73
2024/03/17 09:03:10;;;;;;;7.10;3.57;;;;;;;8.20;85.50;101605.13;5059084;28;20345;-70
2024/03/17 09:05:36;;;;;;;9.40;4.20;;;;;;;8.30;85.00;101606.50;5058122;28;20793;-72
2024/03/17 09:08:03;;;;;;;7.93;3.30;;;;;;;8.42;83.61;101601.69;5061236;28;20201;-72
2024/03/17 09:10:30;;;;;;;8.70;3.20;;;;;;;8.54;79.81;101611.81;5064056;28;20200;-72
2024/03/17 09:12:57;;;;;;;8.63;3.33;;;;;;;8.59;80.38;101616.03;5059487;28;20779;-71
2024/03/17 09:15:25;;;;;;;9.90;3.43;;;;;;;8.70;79.05;101613.78;5056749;28;20197;-72
2024/03/17 09:17:51;;;;;;;7.43;3.00;;;;;;;8.80;79.64;101611.59;5058019;28;20669;-71
2024/03/17 09:20:18;;;;;;;4.43;3.13;;;;;;;8.87;78.45;101615.75;5057472;28;20222;-72
2024/03/17 09:22:45;;;;;;;7.47;2.73;;;;;;;9.01;78.39;101608.06;5062363;28;20931;-73
2024/03/17 09:25:12;;;;;;;9.33;3.10;;;;;;;9.13;76.60;101611.16;5061092;28;20203;-72
2024/03/17 09:27:38;;;;;;;4.20;2.53;;;;;;;9.24;75.96;101606.25;5059541;28;20210;-72
2024/03/17 09:30:09;;;;;;;7.80;3.10;;;;;;;9.30;74.96;101600.69;5060738;28;20293;-73
2024/03/17 09:32:37;;;;;;;8.50;3.13;;;;;;;9.38;75.67;101611.84;5060631;28;20236;-71
2024/03/17 09:35:04;;;;;;;8.07;2.80;;;;;;;9.45;74.77;101612.44;5062082;28;20743;-72
2024/03/17 09:37:31;;;;;;;11.43;4.27;;;;;;;9.54;73.91;101607.56;5050781;28;20220;-72
2024/03/17 09:39:59;;;;;;;8.63;3.20;;;;;;;9.62;73.33;101613.44;5059463;28;20347;-72
2024/03/17 09:42:27;;;;;;;9.73;3.70;;;;;;;9.62;72.94;101608.13;5061806;28;20253;-73
2024/03/17 09:44:56;;;;;;;10.53;3.73;;;;;;;9.70;73.27;101610.41;5062082;28;20209;-73
2024/03/17 09:47:23;;;;;;;12.43;4.13;;;;;;;9.79;71.97;101611.81;5054242;28;20235;-72
2024/03/17 09:49:51;;;;;;;11.23;3.40;;;;;;;9.89;70.82;101621.09;5057519;28;20218;-73
2024/03/17 09:52:22;;;;;;;7.53;3.40;;;;;;;9.90;69.60;101625.50;5058541;28;20297;-73
2024/03/17 09:54:54;;;;;;;8.67;3.37;;;;;;;9.86;68.71;101623.91;5058249;28;20206;-72
2024/03/17 09:57:23;;;;;;;11.20;4.63;;;;;;;9.87;68.39;101620.31;5057824;28;20217;-72
2024/03/17 09:59:52;;;;;;;6.73;3.53;;;;;;;9.85;68.24;101617.75;5060745;28;20239;-72
2024/03/17 10:02:19;;;;;;;8.07;4.00;;;;;;;9.82;68.31;101611.69;5059835;28;20207;-72
2024/03/17 10:04:46;;;;;;;9.47;3.20;;;;;;;9.81;68.37;101604.63;5063317;28;20214;-72
2024/03/17 10:07:15;;;;;;;4.80;3.63;;;;;;;9.81;68.17;101610.81;5055369;28;20213;-72
2024/03/17 10:09:44;;;;;;;6.63;3.00;;;;;;;9.83;68.82;101608.97;5058290;28;20882;-71
2024/03/17 10:12:26;;;;;;;6.17;3.90;;;;;;;9.86;69.71;101611.47;5060536;28;20263;-72
2024/03/17 10:15:04;;;;;;;6.83;3.50;;;;;;;9.88;69.78;101614.06;5056773;28;20676;-72
2024/03/17 10:17:32;;;;;;;7.47;3.57;;;;;;;9.91;70.38;101611.25;5058708;28;20212;-73
2024/03/17 10:20:18;;;;;;;8.63;3.70;;;;;;;9.91;69.42;101616.59;5057325;28;20710;-73
2024/03/17 10:23:03;;;;;;;7.20;3.83;;;;;;;9.91;69.18;101613.91;5056828;28;20787;-73
2024/03/17 10:25:31;;;;;;;7.93;3.70;;;;;;;9.92;69.31;101613.00;5059959;28;20633;-72
2024/03/17 10:27:58;;;;;;;6.93;3.37;;;;;;;9.94;69.45;101619.09;5057047;28;20209;-73
2024/03/17 10:30:28;;;;;;;6.67;3.23;;;;;;;9.92;68.35;101615.66;5058328;28;20293;-72
2024/03/17 10:32:55;;;;;;;10.33;4.17;;;;;;;9.93;68.43;101615.59;5054266;28;20265;-72
2024/03/17 10:35:32;;;;;;;8.87;3.97;;;;;;;9.93;68.57;101620.03;5055821;28;20676;-73
2024/03/17 10:38:02;;;;;;;5.60;3.80;;;;;;;9.99;69.03;101617.13;5057242;28;20649;-73
2024/03/17 10:40:30;;;;;;;6.67;4.33;;;;;;;10.02;68.49;101625.81;5058517;28;20268;-72
2024/03/17 10:42:58;;;;;;;6.87;4.10;;;;;;;10.02;67.29;101628.50;5054579;28;20241;-72
2024/03/17 10:45:26;;;;;;;7.57;4.17;;;;;;;10.00;67.54;101630.34;5059041;28;20692;-71
2024/03/17 10:47:53;;;;;;;7.10;3.73;;;;;;;10.02;67.18;101625.81;5055344;28;20293;-72
2024/03/17 10:50:21;;;;;;;8.47;4.60;;;;;;;10.01;66.96;101620.56;5053769;28;20209;-71
2024/03/17 10:52:50;;;;;;;7.97;4.00;;;;;;;10.08;66.99;101608.69;5056520;28;20331;-72
2024/03/17 10:55:26;;;;;;;6.23;3.83;;;;;;;10.12;66.17;101615.59;5056165;28;20205;-71
2024/03/17 10:57:55;;;;;;;7.23;4.40;;;;;;;10.19;66.71;101614.44;5058836;28;20756;-70
2024/03/17 11:00:23;;;;;;;8.13;4.13;;;;;;;10.24;66.03;101609.75;5057023;28;20880;-73
2024/03/17 11:02:51;;;;;;;6.77;4.40;;;;;;;10.30;66.50;101605.94;5060942;28;20312;-72
2024/03/17 11:05:21;;;;;;;7.67;4.40;;;;;;;10.39;67.04;101603.69;5060228;28;20198;-72
2024/03/17 11:07:50;;;;;;;5.83;3.50;;;;;;;10.47;66.72;101598.00;5064137;28;20669;-72
2024/03/17 11:10:21;;;;;;;6.47;3.90;;;;;;;10.51;65.62;101596.94;5056566;28;20201;-71
2024/03/17 11:12:51;;;;;;;6.40;4.10;;;;;;;10.54;65.64;101590.59;5059617;28;20646;-73
2024/03/17 11:15:43;;;;;;;10.43;4.43;;;;;;;10.61;65.07;101587.56;5060850;28;20201;-70
2024/03/17 11:18:38;;;;;;;6.63;4.13;;;;;;;10.67;64.59;101589.06;5062292;28;20293;-73
2024/03/17 11:21:10;;;;;;;5.73;4.07;;;;;;;10.72;63.05;101587.91;5056448;28;20618;-72
2024/03/17 11:23:38;;;;;;;8.83;4.60;;;;;;;10.71;63.52;101588.84;5060664;28;20281;-72
2024/03/17 11:26:05;;;;;;;7.33;3.90;;;;;;;10.79;63.08;101593.78;5059412;28;20231;-71
2024/03/17 11:28:51;;;;;;;8.27;4.37;;;;;;;10.82;63.82;101590.09;5059628;28;20288;-72
2024/03/17 11:31:44;;;;;;;6.87;4.10;;;;;;;10.84;63.62;101588.22;5062519;28;20213;-71